Time;durP1;ratioP1;P1;durP2;ratioP2;P2;SDS_P1;SDS_P2;PMS_P1;PMS_P2;Temp;Humidity;BMP_temperature;BMP_pressure;BME280_temperature;BME280_humidity;BME280_pressure;Samples;Min_cycle;Max_cycle;Signal;HPM_P1;HPM_P2
2021/10/11 00:00:43;;;;;;;;;;;;;;;19.42;59.98;100474.03;2084766;28;20066;-72
2021/10/11 00:01:43;;;;;;;;;;;;;;;19.42;59.90;100471.28;2081395;28;20100;-72
2021/10/11 00:02:44;;;;;;;;;;;;;;;19.42;59.97;100468.56;2082177;28;19941;-72
2021/10/11 00:03:44;;;;;;;;;;;;;;;19.41;59.94;100475.91;2083394;28;19927;-72
2021/10/11 00:04:44;;;;;;;;;;;;;;;19.42;59.99;100476.75;2083236;28;20280;-72
2021/10/11 00:05:57;;;;;;;;;;;;;;;19.41;59.93;100477.78;2085185;28;19916;-71
2021/10/11 00:06:57;;;;;;;;;;;;;;;19.41;59.79;100475.06;2083364;28;20317;-73
2021/10/11 00:07:58;;;;;;;;;;;;;;;19.40;59.98;100470.56;2083620;28;19951;-72
2021/10/11 00:08:58;;;;;;;;;;;;;;;19.40;59.98;100478.78;2080818;28;19919;-73
2021/10/11 00:09:58;;;;;;;;;;;;;;;19.40;59.97;100476.03;2078109;28;19970;-72
2021/10/11 00:10:59;;;;;;;;;;;;;;;19.39;60.04;100475.19;2089537;28;19908;-73
2021/10/11 00:11:59;;;;;;;;;;;;;;;19.40;59.92;100481.50;2087359;28;20285;-73
2021/10/11 00:12:59;;;;;;;;;;;;;;;19.39;59.91;100480.66;2085452;28;20133;-73
2021/10/11 00:13:59;;;;;;;;;;;;;;;19.39;59.92;100480.66;2081517;28;19917;-72
2021/10/11 00:15:00;;;;;;;;;;;;;;;19.39;59.98;100477.06;2074079;28;19913;-73
2021/10/11 00:16:00;;;;;;;;;;;;;;;19.39;60.01;100482.53;2075885;28;19924;-72
2021/10/11 00:17:00;;;;;;;;;;;;;;;19.40;59.98;100476.03;2084157;28;19916;-73
2021/10/11 00:18:01;;;;;;;;;;;;;;;19.40;59.92;100476.03;2084339;28;20224;-73
2021/10/11 00:19:05;;;;;;;;;;;;;;;19.39;59.85;100468.84;2084780;28;19951;-73
2021/10/11 00:20:05;;;;;;;;;;;;;;;19.40;59.89;100473.31;2083192;28;20395;-74
2021/10/11 00:21:06;;;;;;;;;;;;;;;19.38;59.87;100467.16;2076126;28;20245;-73
2021/10/11 00:22:06;;;;;;;;;;;;;;;19.39;59.84;100477.06;2076359;28;19913;-73
2021/10/11 00:23:09;;;;;;;;;;;;;;;19.39;59.90;100477.06;2074863;28;20290;-72
2021/10/11 00:24:10;;;;;;;;;;;;;;;19.38;59.98;100472.59;2068630;28;19963;-74
2021/10/11 00:25:10;;;;;;;;;;;;;;;19.38;59.94;100483.53;2068868;28;19917;-73
2021/10/11 00:26:11;;;;;;;;;;;;;;;19.38;59.94;100483.53;2078456;28;19913;-73
2021/10/11 00:27:11;;;;;;;;;;;;;;;19.38;59.95;100478.06;2085220;28;19935;-73
2021/10/11 00:28:11;;;;;;;;;;;;;;;19.38;59.84;100483.53;2082855;28;20608;-73
2021/10/11 00:29:12;;;;;;;;;;;;;;;19.37;59.91;100476.34;2086081;28;19960;-72
2021/10/11 00:30:13;;;;;;;;;;;;;;;19.38;59.97;100483.53;2083694;28;19923;-72
2021/10/11 00:31:13;;;;;;;;;;;;;;;19.37;59.96;100481.78;2084507;28;20407;-73
2021/10/11 00:32:13;;;;;;;;;;;;;;;19.37;59.92;100481.78;2073769;28;19916;-73
2021/10/11 00:33:14;;;;;;;;;;;;;;;19.37;59.93;100481.78;2073876;28;19925;-73
2021/10/11 00:34:14;;;;;;;;;;;;;;;19.37;59.93;100487.25;2084000;28;19939;-73
2021/10/11 00:35:14;;;;;;;;;;;;;;;19.36;59.93;100480.94;2079306;28;19955;-73
2021/10/11 00:36:15;;;;;;;;;;;;;;;19.37;59.80;100487.25;2080914;28;19967;-73
2021/10/11 00:37:15;;;;;;;;;;;;;;;19.37;59.92;100481.78;2086273;28;19923;-73
2021/10/11 00:38:16;;;;;;;;;;;;;;;19.37;59.94;100487.25;2080458;28;19913;-73
2021/10/11 00:39:16;;;;;;;;;;;;;;;19.36;59.87;100480.09;2081461;28;19927;-73
2021/10/11 00:40:16;;;;;;;;;;;;;;;19.36;59.94;100480.94;2081945;28;20613;-73
2021/10/11 00:41:17;;;;;;;;;;;;;;;19.36;59.86;100480.94;2082303;28;20086;-72
2021/10/11 00:42:17;;;;;;;;;;;;;;;19.36;59.83;100480.09;2077967;28;19944;-73
2021/10/11 00:43:17;;;;;;;;;;;;;;;19.35;59.94;100481.94;2077185;28;20312;-73
2021/10/11 00:44:18;;;;;;;;;;;;;;;19.35;59.90;100478.34;2078639;28;19950;-73
2021/10/11 00:45:18;;;;;;;;;;;;;;;19.35;59.94;100486.53;2080569;28;20275;-73
2021/10/11 00:46:18;;;;;;;;;;;;;;;19.34;59.90;100477.47;2085375;28;19924;-73
2021/10/11 00:47:19;;;;;;;;;;;;;;;19.34;59.95;100480.22;2084391;28;20382;-72
2021/10/11 00:48:19;;;;;;;;;;;;;;;19.35;60.00;100472.88;2070425;28;19909;-73
2021/10/11 00:49:19;;;;;;;;;;;;;;;19.35;59.92;100478.34;2074777;28;19920;-73
2021/10/11 00:50:20;;;;;;;;;;;;;;;19.34;59.89;100474.75;2089565;28;20275;-73
2021/10/11 00:51:20;;;;;;;;;;;;;;;19.35;59.89;100472.88;2090649;28;19920;-73
2021/10/11 00:52:21;;;;;;;;;;;;;;;19.34;59.91;100476.63;2086959;28;19967;-73
2021/10/11 00:53:21;;;;;;;;;;;;;;;19.34;59.87;100472.00;2087139;28;19940;-73
2021/10/11 00:54:26;;;;;;;;;;;;;;;19.34;59.85;100471.16;2080490;28;19989;-73
2021/10/11 00:55:26;;;;;;;;;;;;;;;19.34;59.86;100472.00;2081290;28;20595;-73
2021/10/11 00:56:26;;;;;;;;;;;;;;;19.34;59.79;100477.47;2082515;28;19931;-72
2021/10/11 00:57:27;;;;;;;;;;;;;;;19.34;59.88;100477.47;2083604;28;21666;-72
2021/10/11 00:58:27;;;;;;;;;;;;;;;19.35;59.81;100478.34;2082358;28;19927;-73
2021/10/11 00:59:27;;;;;;;;;;;;;;;19.34;59.80;100476.63;2090288;28;19928;-73
2021/10/11 01:00:28;;;;;;;;;;;;;;;19.34;59.78;100479.34;2088539;28;19927;-73
2021/10/11 01:01:28;;;;;;;;;;;;;;;19.34;59.80;100482.09;2078206;28;19916;-73
2021/10/11 01:02:28;;;;;;;;;;;;;;;19.33;59.77;100475.75;2083521;28;19917;-73
2021/10/11 01:03:29;;;;;;;;;;;;;;;19.34;59.80;100471.16;2086337;28;20800;-73
2021/10/11 01:04:29;;;;;;;;;;;;;;;19.32;59.81;100463.09;2084136;28;20562;-73
2021/10/11 01:05:32;;;;;;;;;;;;;;;19.33;59.83;100464.84;2086167;28;19915;-73
2021/10/11 01:06:37;;;;;;;;;;;;;;;19.32;59.76;100467.69;2090549;28;20440;-73
2021/10/11 01:07:38;;;;;;;;;;;;;;;19.33;59.90;100458.47;2080716;28;20047;-73
2021/10/11 01:08:39;;;;;;;;;;;;;;;19.32;59.92;100462.22;2080109;28;20403;-73
2021/10/11 01:09:40;;;;;;;;;;;;;;;19.33;59.93;100461.22;2084725;28;20007;-73
2021/10/11 01:10:40;;;;;;;;;;;;;;;19.32;59.81;100462.22;2083120;28;20148;-73
2021/10/11 01:11:42;;;;;;;;;;;;;;;19.32;59.89;100452.16;2085943;28;20151;-73
2021/10/11 01:12:42;;;;;;;;;;;;;;;19.32;59.88;100460.34;2084485;28;19920;-73
2021/10/11 01:13:42;;;;;;;;;;;;;;;19.32;59.78;100459.50;2084474;28;19916;-73
2021/10/11 01:14:43;;;;;;;;;;;;;;;19.31;59.82;100455.91;2086155;28;19924;-73
2021/10/11 01:15:43;;;;;;;;;;;;;;;19.31;59.77;100449.59;2083112;28;20375;-67
2021/10/11 01:16:44;;;;;;;;;;;;;;;19.31;59.86;100455.06;2083949;28;20235;-67
2021/10/11 01:17:44;;;;;;;;;;;;;;;19.31;59.85;100447.72;2073227;28;20007;-67
2021/10/11 01:18:45;;;;;;;;;;;;;;;19.30;59.88;100448.69;2075546;28;19920;-67
2021/10/11 01:19:49;;;;;;;;;;;;;;;19.30;59.80;100445.97;2082602;28;19927;-67
2021/10/11 01:20:50;;;;;;;;;;;;;;;19.30;59.86;100454.16;2078961;28;19921;-67
2021/10/11 01:21:50;;;;;;;;;;;;;;;19.31;59.84;100455.06;2077934;28;19909;-67
2021/10/11 01:22:50;;;;;;;;;;;;;;;19.31;59.83;100452.31;2080459;28;19952;-67
2021/10/11 01:23:51;;;;;;;;;;;;;;;19.30;59.85;100448.69;2095146;28;19908;-67
2021/10/11 01:24:51;;;;;;;;;;;;;;;19.31;59.90;100449.59;2083069;28;19916;-67
2021/10/11 01:25:52;;;;;;;;;;;;;;;19.31;59.86;100455.06;2083317;28;19923;-67
2021/10/11 01:26:53;;;;;;;;;;;;;;;19.30;59.85;100454.16;2081755;28;20356;-67
2021/10/11 01:27:53;;;;;;;;;;;;;;;19.30;59.94;100453.31;2082290;28;20650;-66
2021/10/11 01:28:54;;;;;;;;;;;;;;;19.31;59.82;100460.53;2084129;28;19923;-67
2021/10/11 01:29:55;;;;;;;;;;;;;;;19.30;59.83;100458.78;2083475;28;20129;-67
2021/10/11 01:30:56;;;;;;;;;;;;;;;19.30;59.91;100453.31;2082583;28;21651;-67
2021/10/11 01:32:06;;;;;;;;;;;;;;;19.30;59.85;100456.03;2084175;28;19931;-66
2021/10/11 01:33:09;;;;;;;;;;;;;;;19.28;59.88;100459.78;2082134;28;19920;-66
2021/10/11 01:34:10;;;;;;;;;;;;;;;19.28;59.89;100462.53;2081200;28;19969;-66
2021/10/11 01:35:11;;;;;;;;;;;;;;;19.30;59.87;100464.22;2082159;28;20162;-66
2021/10/11 01:36:12;;;;;;;;;;;;;;;19.30;59.85;100458.78;2078704;28;19977;-66
2021/10/11 01:37:12;;;;;;;;;;;;;;;19.28;59.81;100457.06;2083489;28;20173;-66
2021/10/11 01:38:12;;;;;;;;;;;;;;;19.28;59.84;100457.06;2084188;28;19923;-66
2021/10/11 01:39:13;;;;;;;;;;;;;;;19.30;59.79;100461.50;2080969;28;19972;-67
2021/10/11 01:40:13;;;;;;;;;;;;;;;19.28;59.90;100456.19;2083514;28;19969;-67
2021/10/11 01:41:13;;;;;;;;;;;;;;;19.30;59.80;100458.78;2084892;28;19924;-65
2021/10/11 01:42:14;;;;;;;;;;;;;;;19.28;59.77;100461.66;2088575;28;19973;-66
2021/10/11 01:43:14;;;;;;;;;;;;;;;19.27;59.77;100460.78;2084890;28;21213;-66
2021/10/11 01:44:14;;;;;;;;;;;;;;;19.30;59.68;100469.69;2082416;28;19923;-66
2021/10/11 01:45:15;;;;;;;;;;;;;;;19.28;59.84;100468.00;2083917;28;19955;-66
2021/10/11 01:46:15;;;;;;;;;;;;;;;19.28;59.87;100472.59;2083496;28;19952;-67
2021/10/11 01:47:16;;;;;;;;;;;;;;;19.28;59.77;100465.25;2084040;28;20061;-66
2021/10/11 01:48:17;;;;;;;;;;;;;;;19.28;59.88;100472.59;2081888;28;19966;-66
2021/10/11 01:49:17;;;;;;;;;;;;;;;19.30;59.76;100475.16;2077738;28;20040;-66
2021/10/11 01:50:17;;;;;;;;;;;;;;;19.27;59.87;100471.72;2085219;28;19909;-66
2021/10/11 01:51:19;;;;;;;;;;;;;;;19.27;59.78;100471.72;2081037;28;20295;-66
2021/10/11 01:52:20;;;;;;;;;;;;;;;19.26;59.80;100470.00;2082439;28;19921;-66
2021/10/11 01:53:20;;;;;;;;;;;;;;;19.27;59.86;100466.25;2084780;28;19956;-67
2021/10/11 01:54:21;;;;;;;;;;;;;;;19.27;59.86;100471.72;2080175;28;19927;-66
2021/10/11 01:55:21;;;;;;;;;;;;;;;19.27;59.80;100468.97;2084904;28;19923;-66
2021/10/11 01:56:22;;;;;;;;;;;;;;;19.27;59.87;100465.38;2080591;28;19920;-66
2021/10/11 01:57:22;;;;;;;;;;;;;;;19.26;59.82;100472.72;2086861;28;19927;-66
2021/10/11 01:58:22;;;;;;;;;;;;;;;19.26;59.75;100474.59;2081649;28;20472;-66
2021/10/11 01:59:22;;;;;;;;;;;;;;;19.26;59.80;100470.00;2085697;28;19981;-66
2021/10/11 02:00:23;;;;;;;;;;;;;;;19.26;59.89;100470.00;2079112;28;19966;-67
2021/10/11 02:01:23;;;;;;;;;;;;;;;19.26;59.82;100470.00;2082283;28;19916;-67
2021/10/11 02:02:23;;;;;;;;;;;;;;;19.26;59.98;100472.72;2081882;28;20551;-66
2021/10/11 02:03:24;;;;;;;;;;;;;;;19.25;59.81;100470.97;2082579;28;19924;-66
2021/10/11 02:04:25;;;;;;;;;;;;;;;19.26;59.80;100471.88;2084289;28;19936;-66
2021/10/11 02:05:25;;;;;;;;;;;;;;;19.26;59.77;100470.00;2079677;28;19940;-66
2021/10/11 02:06:25;;;;;;;;;;;;;;;19.26;59.79;100466.41;2084291;28;20443;-66
2021/10/11 02:07:26;;;;;;;;;;;;;;;19.25;59.76;100468.25;2077949;28;20287;-66
2021/10/11 02:08:27;;;;;;;;;;;;;;;19.26;59.84;100467.25;2077219;28;19920;-67
2021/10/11 02:09:28;;;;;;;;;;;;;;;19.25;59.86;100470.97;2078082;28;19998;-66
2021/10/11 02:10:28;;;;;;;;;;;;;;;19.25;59.88;100472.84;2082114;28;19940;-66
2021/10/11 02:11:29;;;;;;;;;;;;;;;19.24;59.88;100463.81;2084461;28;20281;-67
2021/10/11 02:12:29;;;;;;;;;;;;;;;19.25;59.84;100468.25;2085479;28;20368;-66
2021/10/11 02:13:29;;;;;;;;;;;;;;;19.25;59.81;100472.84;2085527;28;19930;-66
2021/10/11 02:14:29;;;;;;;;;;;;;;;19.25;59.91;100473.72;2084274;28;19970;-66
2021/10/11 02:15:30;;;;;;;;;;;;;;;19.25;59.82;100472.84;2086181;28;19916;-66
2021/10/11 02:16:30;;;;;;;;;;;;;;;19.25;59.86;100467.41;2083802;28;19915;-66
2021/10/11 02:17:30;;;;;;;;;;;;;;;19.25;59.75;100467.41;2085374;28;19913;-67
2021/10/11 02:18:31;;;;;;;;;;;;;;;19.25;59.86;100461.94;2075892;28;19924;-66
2021/10/11 02:19:31;;;;;;;;;;;;;;;19.24;59.89;100466.53;2074575;28;19963;-66
2021/10/11 02:20:31;;;;;;;;;;;;;;;19.24;59.84;100460.22;2086347;28;20443;-66
2021/10/11 02:21:32;;;;;;;;;;;;;;;19.24;59.80;100465.69;2083528;28;20426;-66
2021/10/11 02:22:32;;;;;;;;;;;;;;;19.24;59.70;100461.06;2084253;28;19923;-66
2021/10/11 02:23:32;;;;;;;;;;;;;;;19.24;59.79;100461.06;2078464;28;20371;-68
2021/10/11 02:24:33;;;;;;;;;;;;;;;19.23;59.92;100459.34;2076798;28;19913;-67
2021/10/11 02:25:33;;;;;;;;;;;;;;;19.23;59.92;100464.81;2077720;28;19958;-67
2021/10/11 02:26:33;;;;;;;;;;;;;;;19.23;59.83;100453.00;2083380;28;20583;-67
2021/10/11 02:27:34;;;;;;;;;;;;;;;19.23;59.82;100458.47;2083376;28;19927;-68
2021/10/11 02:28:35;;;;;;;;;;;;;;;19.23;59.81;100453.88;2085829;28;20276;-66
2021/10/11 02:29:35;;;;;;;;;;;;;;;19.23;59.73;100450.25;2083351;28;20694;-66
2021/10/11 02:30:36;;;;;;;;;;;;;;;19.23;59.81;100450.25;2084732;28;19909;-66
2021/10/11 02:31:36;;;;;;;;;;;;;;;19.22;59.83;100452.16;2078005;28;19905;-67
2021/10/11 02:32:37;;;;;;;;;;;;;;;19.22;59.78;100452.16;2081664;28;19927;-66
2021/10/11 02:33:38;;;;;;;;;;;;;;;19.23;59.69;100442.06;2086115;28;19958;-66
2021/10/11 02:34:38;;;;;;;;;;;;;;;19.22;59.79;100452.16;2078707;28;19913;-66
2021/10/11 02:35:38;;;;;;;;;;;;;;;19.22;59.85;100440.34;2079560;28;20804;-67
2021/10/11 02:36:39;;;;;;;;;;;;;;;19.21;59.76;100442.22;2085908;28;20294;-66
2021/10/11 02:37:39;;;;;;;;;;;;;;;19.22;59.81;100449.41;2079056;28;19927;-66
2021/10/11 02:38:39;;;;;;;;;;;;;;;19.22;59.78;100445.81;2080128;28;19920;-66
2021/10/11 02:39:40;;;;;;;;;;;;;;;19.21;59.79;100444.97;2078801;28;20059;-66
2021/10/11 02:40:40;;;;;;;;;;;;;;;19.22;59.75;100445.81;2080153;28;20151;-66
2021/10/11 02:41:40;;;;;;;;;;;;;;;19.21;59.85;100447.69;2085292;28;20047;-66
2021/10/11 02:42:41;;;;;;;;;;;;;;;19.21;59.72;100444.09;2083527;28;19951;-66
2021/10/11 02:43:41;;;;;;;;;;;;;;;19.21;59.77;100444.09;2078165;28;21431;-66
2021/10/11 02:44:41;;;;;;;;;;;;;;;19.22;59.77;100440.34;2083341;28;19920;-66
2021/10/11 02:45:42;;;;;;;;;;;;;;;19.21;59.77;100450.44;2083154;28;20374;-66
2021/10/11 02:46:42;;;;;;;;;;;;;;;19.21;59.80;100453.16;2085132;28;20517;-66
2021/10/11 02:47:42;;;;;;;;;;;;;;;19.21;59.72;100453.16;2079662;28;20506;-66
2021/10/11 02:48:43;;;;;;;;;;;;;;;19.21;59.67;100452.31;2087492;28;20290;-66
2021/10/11 02:49:43;;;;;;;;;;;;;;;19.22;59.84;100457.59;2085592;28;19920;-67
2021/10/11 02:50:43;;;;;;;;;;;;;;;19.21;59.75;100453.16;2081846;28;19925;-66
2021/10/11 02:51:50;;;;;;;;;;;;;;;19.21;59.78;100444.97;2083542;28;20375;-66
2021/10/11 02:52:50;;;;;;;;;;;;;;;19.20;59.75;100453.28;2075749;28;19920;-67
2021/10/11 02:53:51;;;;;;;;;;;;;;;19.20;59.71;100451.41;2074843;28;19991;-67
2021/10/11 02:54:51;;;;;;;;;;;;;;;19.21;59.66;100455.91;2081639;28;19921;-67
2021/10/11 02:55:51;;;;;;;;;;;;;;;19.20;59.70;100453.28;2089432;28;20478;-67
2021/10/11 02:56:52;;;;;;;;;;;;;;;19.20;59.58;100453.28;2083137;28;19923;-67
2021/10/11 02:57:52;;;;;;;;;;;;;;;19.19;59.76;100444.25;2093538;28;20212;-67
2021/10/11 02:58:52;;;;;;;;;;;;;;;19.21;59.70;100444.09;2080363;28;19986;-66
2021/10/11 02:59:52;;;;;;;;;;;;;;;19.19;59.68;100441.50;2080840;28;19920;-67
2021/10/11 03:00:53;;;;;;;;;;;;;;;19.19;59.70;100444.25;2085546;28;19921;-67
2021/10/11 03:01:53;;;;;;;;;;;;;;;19.20;59.76;100445.94;2080465;28;19916;-67
2021/10/11 03:02:53;;;;;;;;;;;;;;;19.19;59.74;100448.84;2085043;28;19916;-67
2021/10/11 03:03:54;;;;;;;;;;;;;;;19.19;59.64;100438.78;2083409;28;20456;-67
2021/10/11 03:04:54;;;;;;;;;;;;;;;19.20;59.73;100442.34;2083099;28;19943;-67
2021/10/11 03:05:54;;;;;;;;;;;;;;;19.18;59.81;100434.31;2077051;28;20592;-66
2021/10/11 03:06:54;;;;;;;;;;;;;;;19.18;59.77;100431.59;2080958;28;19947;-67
2021/10/11 03:07:55;;;;;;;;;;;;;;;19.18;59.77;100437.06;2084770;28;20003;-67
2021/10/11 03:08:55;;;;;;;;;;;;;;;19.19;59.67;100435.19;2084969;28;19916;-67
2021/10/11 03:09:55;;;;;;;;;;;;;;;19.18;59.72;100431.59;2079482;28;19925;-67
2021/10/11 03:10:57;;;;;;;;;;;;;;;19.19;59.76;100441.50;2081558;28;19921;-67
2021/10/11 03:11:57;;;;;;;;;;;;;;;19.19;59.71;100436.03;2081233;28;20007;-66
2021/10/11 03:12:58;;;;;;;;;;;;;;;19.19;59.67;100435.19;2082996;28;19940;-67
2021/10/11 03:13:58;;;;;;;;;;;;;;;19.19;59.68;100429.72;2077567;28;19913;-67
2021/10/11 03:14:58;;;;;;;;;;;;;;;19.19;59.72;100427.84;2079752;28;20769;-67
2021/10/11 03:15:59;;;;;;;;;;;;;;;19.20;59.63;100431.44;2074128;28;19927;-67
2021/10/11 03:16:59;;;;;;;;;;;;;;;19.19;59.70;100436.03;2070129;28;19921;-67
2021/10/11 03:17:59;;;;;;;;;;;;;;;19.18;59.65;100428.84;2083993;28;20404;-67
2021/10/11 03:18:59;;;;;;;;;;;;;;;19.19;59.76;100426.97;2078240;28;19917;-67
2021/10/11 03:20:00;;;;;;;;;;;;;;;19.17;59.75;100421.66;2078670;28;19916;-67
2021/10/11 03:21:00;;;;;;;;;;;;;;;19.18;59.80;100427.97;2083615;28;19908;-67
2021/10/11 03:22:00;;;;;;;;;;;;;;;19.18;59.71;100425.25;2084534;28;19925;-66
2021/10/11 03:23:01;;;;;;;;;;;;;;;19.17;59.79;100421.66;2078488;28;19916;-67
2021/10/11 03:24:01;;;;;;;;;;;;;;;19.17;59.84;100424.38;2084131;28;19963;-66
2021/10/11 03:25:01;;;;;;;;;;;;;;;19.17;59.74;100432.59;2079278;28;19916;-66
2021/10/11 03:26:08;;;;;;;;;;;;;;;19.17;59.76;100427.13;2083576;28;19921;-66
2021/10/11 03:27:08;;;;;;;;;;;;;;;19.17;59.66;100432.59;2084807;28;19916;-66
2021/10/11 03:28:08;;;;;;;;;;;;;;;19.16;59.72;100430.88;2082175;28;19909;-66
2021/10/11 03:29:09;;;;;;;;;;;;;;;19.17;59.69;100427.13;2082813;28;19909;-66
2021/10/11 03:30:09;;;;;;;;;;;;;;;19.16;59.70;100433.59;2081121;28;19978;-66
2021/10/11 03:31:09;;;;;;;;;;;;;;;19.17;59.78;100432.59;2083639;28;19924;-66
2021/10/11 03:32:10;;;;;;;;;;;;;;;19.17;59.75;100431.72;2079690;28;19932;-66
2021/10/11 03:33:10;;;;;;;;;;;;;;;19.16;59.68;100430.88;2082403;28;19968;-66
2021/10/11 03:34:12;;;;;;;;;;;;;;;19.16;59.88;100439.06;2086543;28;20054;-66
2021/10/11 03:35:12;;;;;;;;;;;;;;;19.15;59.63;100434.59;2079863;28;19923;-66
2021/10/11 03:36:12;;;;;;;;;;;;;;;19.17;59.71;100437.19;2081942;28;20395;-66
2021/10/11 03:37:13;;;;;;;;;;;;;;;19.15;59.72;100440.06;2080545;28;19967;-66
2021/10/11 03:38:13;;;;;;;;;;;;;;;19.15;59.67;100429.13;2080908;28;20360;-66
2021/10/11 03:39:13;;;;;;;;;;;;;;;19.16;59.64;100430.88;2081179;28;20418;-67
2021/10/11 03:40:14;;;;;;;;;;;;;;;19.15;59.75;100429.13;2080921;28;19925;-67
2021/10/11 03:41:14;;;;;;;;;;;;;;;19.15;59.63;100429.13;2083565;28;20411;-66
2021/10/11 03:42:14;;;;;;;;;;;;;;;19.16;59.60;100436.34;2084436;28;19963;-66
2021/10/11 03:43:14;;;;;;;;;;;;;;;19.15;59.76;100433.72;2082001;28;19905;-66
2021/10/11 03:44:15;;;;;;;;;;;;;;;19.15;59.67;100431.84;2085223;28;19912;-67
2021/10/11 03:45:17;;;;;;;;;;;;;;;19.15;59.75;100440.06;2080865;28;19927;-66
2021/10/11 03:46:18;;;;;;;;;;;;;;;19.15;59.71;100434.59;2080103;28;20014;-66
2021/10/11 03:47:18;;;;;;;;;;;;;;;19.15;59.59;100440.06;2084553;28;19912;-65
2021/10/11 03:48:18;;;;;;;;;;;;;;;19.15;59.65;100439.19;2084692;28;19908;-66
2021/10/11 03:49:19;;;;;;;;;;;;;;;19.14;59.57;100432.88;2083397;28;20394;-66
2021/10/11 03:50:19;;;;;;;;;;;;;;;19.15;59.65;100439.19;2083353;28;20094;-66
2021/10/11 03:51:21;;;;;;;;;;;;;;;19.15;59.58;100442.78;2085137;28;19958;-67
2021/10/11 03:52:21;;;;;;;;;;;;;;;19.14;59.66;100438.34;2082844;28;20647;-67
2021/10/11 03:53:22;;;;;;;;;;;;;;;19.14;59.61;100438.34;2080770;28;20307;-66
2021/10/11 03:54:22;;;;;;;;;;;;;;;19.14;59.63;100438.34;2084397;28;19917;-66
2021/10/11 03:55:23;;;;;;;;;;;;;;;19.15;59.60;100440.06;2083166;28;19931;-66
2021/10/11 03:56:23;;;;;;;;;;;;;;;19.15;59.58;100445.50;2083350;28;20339;-66
2021/10/11 03:57:27;;;;;;;;;;;;;;;19.15;59.54;100440.06;2089432;28;19908;-67
2021/10/11 03:58:27;;;;;;;;;;;;;;;19.14;59.67;100432.88;2083572;28;20657;-67
2021/10/11 03:59:27;;;;;;;;;;;;;;;19.14;59.58;100432.88;2085639;28;20680;-68
2021/10/11 04:00:28;;;;;;;;;;;;;;;19.13;59.67;100436.59;2081433;28;19913;-67
2021/10/11 04:01:28;;;;;;;;;;;;;;;19.14;59.45;100432.00;2077537;28;19912;-67
2021/10/11 04:02:28;;;;;;;;;;;;;;;19.14;59.67;100441.06;2084188;28;19916;-67
2021/10/11 04:03:28;;;;;;;;;;;;;;;19.15;59.65;100433.72;2080821;28;19925;-68
2021/10/11 04:04:29;;;;;;;;;;;;;;;19.13;59.62;100444.78;2080812;28;19921;-67
2021/10/11 04:05:30;;;;;;;;;;;;;;;19.13;59.52;100444.78;2080280;28;19920;-67
2021/10/11 04:06:30;;;;;;;;;;;;;;;19.14;59.60;100443.81;2081382;28;19992;-67
2021/10/11 04:07:31;;;;;;;;;;;;;;;19.14;59.65;100448.41;2084130;28;20059;-67
2021/10/11 04:08:40;;;;;;;;;;;;;;;19.15;59.60;100447.38;2083749;28;19939;-67
2021/10/11 04:09:42;;;;;;;;;;;;;;;19.13;59.50;100442.06;2077529;28;19917;-67
2021/10/11 04:10:52;;;;;;;;;;;;;;;19.14;59.69;100445.69;2083360;28;20986;-67
2021/10/11 04:11:53;;;;;;;;;;;;;;;19.14;59.58;100448.41;2080340;28;20462;-67
2021/10/11 04:13:00;;;;;;;;;;;;;;;19.13;59.62;100446.66;2084269;28;19920;-67
2021/10/11 04:14:01;;;;;;;;;;;;;;;19.13;59.71;100441.19;2080875;28;19949;-67
2021/10/11 04:15:02;;;;;;;;;;;;;;;19.12;59.51;100444.94;2084343;28;19917;-67
2021/10/11 04:16:03;;;;;;;;;;;;;;;19.13;59.60;100442.06;2083225;28;19913;-67
2021/10/11 04:17:03;;;;;;;;;;;;;;;19.13;59.54;100447.53;2073908;28;19913;-67
2021/10/11 04:18:03;;;;;;;;;;;;;;;19.12;59.60;100440.34;2073882;28;20125;-67
2021/10/11 04:19:04;;;;;;;;;;;;;;;19.12;59.63;100440.34;2079450;28;19908;-69
2021/10/11 04:20:06;;;;;;;;;;;;;;;19.11;59.51;100449.56;2084497;28;20451;-67
2021/10/11 04:21:06;;;;;;;;;;;;;;;19.12;59.59;100445.81;2077338;28;19916;-67
2021/10/11 04:22:07;;;;;;;;;;;;;;;19.13;59.46;100447.53;2082744;28;19953;-68
2021/10/11 04:23:07;;;;;;;;;;;;;;;19.13;59.68;100452.13;2083230;28;19916;-67
2021/10/11 04:24:07;;;;;;;;;;;;;;;19.12;59.67;100453.16;2085070;28;19916;-67
2021/10/11 04:25:08;;;;;;;;;;;;;;;19.12;59.50;100450.41;2083452;28;20000;-68
2021/10/11 04:26:08;;;;;;;;;;;;;;;19.12;59.66;100450.41;2082852;28;20007;-67
2021/10/11 04:27:08;;;;;;;;;;;;;;;19.12;59.51;100447.69;2084920;28;20006;-67
2021/10/11 04:28:11;;;;;;;;;;;;;;;19.12;59.55;100454.00;2084815;28;19948;-67
2021/10/11 04:29:11;;;;;;;;;;;;;;;19.11;59.54;100449.56;2081831;28;19920;-67
2021/10/11 04:30:11;;;;;;;;;;;;;;;19.12;59.62;100456.75;2084423;28;19920;-68
2021/10/11 04:31:11;;;;;;;;;;;;;;;19.12;59.54;100454.00;2076805;28;19923;-67
2021/10/11 04:32:12;;;;;;;;;;;;;;;19.11;59.62;100455.03;2079625;28;20863;-68
2021/10/11 04:33:13;;;;;;;;;;;;;;;19.10;59.57;100450.53;2082862;28;20569;-67
2021/10/11 04:34:14;;;;;;;;;;;;;;;19.11;59.51;100455.03;2084117;28;19908;-67
2021/10/11 04:35:14;;;;;;;;;;;;;;;19.11;59.51;100449.56;2084918;28;19916;-67
2021/10/11 04:36:14;;;;;;;;;;;;;;;19.12;59.55;100451.28;2081114;28;19916;-67
2021/10/11 04:37:14;;;;;;;;;;;;;;;19.11;59.48;100454.13;2082262;28;20003;-68
2021/10/11 04:38:15;;;;;;;;;;;;;;;19.11;59.53;100449.56;2085139;28;19920;-67
2021/10/11 04:39:15;;;;;;;;;;;;;;;19.11;59.55;100449.56;2082481;28;19920;-67
2021/10/11 04:40:16;;;;;;;;;;;;;;;19.11;59.60;100446.81;2072046;28;19986;-68
2021/10/11 04:41:16;;;;;;;;;;;;;;;19.11;59.55;100455.03;2067330;28;20040;-67
2021/10/11 04:42:16;;;;;;;;;;;;;;;19.11;59.61;100455.03;2074949;28;19913;-67
2021/10/11 04:43:17;;;;;;;;;;;;;;;19.11;59.57;100446.81;2072484;28;19996;-68
2021/10/11 04:44:17;;;;;;;;;;;;;;;19.10;59.52;100450.53;2077271;28;20366;-68
2021/10/11 04:45:17;;;;;;;;;;;;;;;19.10;59.48;100447.81;2083155;28;19981;-67
2021/10/11 04:46:17;;;;;;;;;;;;;;;19.10;59.52;100446.97;2089824;28;20386;-67
2021/10/11 04:47:27;;;;;;;;;;;;;;;19.10;59.50;100452.41;2086627;28;20372;-67
2021/10/11 04:48:27;;;;;;;;;;;;;;;19.10;59.54;100456.00;2085848;28;19959;-67
2021/10/11 04:49:27;;;;;;;;;;;;;;;19.10;59.55;100452.41;2076616;28;19924;-67
2021/10/11 04:50:29;;;;;;;;;;;;;;;19.10;59.53;100450.53;2077705;28;19917;-67
2021/10/11 04:51:30;;;;;;;;;;;;;;;19.10;59.49;100457.88;2077516;28;20057;-67
2021/10/11 04:52:30;;;;;;;;;;;;;;;19.09;59.57;100451.56;2080670;28;20261;-67
2021/10/11 04:53:30;;;;;;;;;;;;;;;19.10;59.55;100460.63;2074795;28;20814;-67
2021/10/11 04:54:31;;;;;;;;;;;;;;;19.09;59.47;100451.56;2068550;28;19917;-67
2021/10/11 04:55:31;;;;;;;;;;;;;;;19.09;59.54;100465.22;2077205;28;19917;-67
2021/10/11 04:56:32;;;;;;;;;;;;;;;19.09;59.51;100456.16;2084753;28;19916;-67
2021/10/11 04:57:32;;;;;;;;;;;;;;;19.08;59.54;100455.28;2083808;28;19912;-67
2021/10/11 04:58:32;;;;;;;;;;;;;;;19.08;59.49;100449.81;2082656;28;19917;-67
2021/10/11 04:59:32;;;;;;;;;;;;;;;19.09;59.52;100457.03;2081642;28;19921;-67
2021/10/11 05:00:34;;;;;;;;;;;;;;;19.08;59.53;100458.00;2081068;28;20299;-67
2021/10/11 05:01:34;;;;;;;;;;;;;;;19.08;59.42;100448.97;2078136;28;19917;-67
2021/10/11 05:02:35;;;;;;;;;;;;;;;19.09;59.46;100462.50;2082804;28;20094;-67
2021/10/11 05:03:35;;;;;;;;;;;;;;;19.08;59.50;100455.28;2082392;28;19927;-67
2021/10/11 05:04:35;;;;;;;;;;;;;;;19.08;59.53;100455.28;2083507;28;20323;-67
2021/10/11 05:05:36;;;;;;;;;;;;;;;19.07;59.51;100453.56;2081254;28;19928;-67
2021/10/11 05:06:36;;;;;;;;;;;;;;;19.07;59.48;100456.31;2082882;28;19912;-67
2021/10/11 05:07:36;;;;;;;;;;;;;;;19.07;59.41;100453.56;2081044;28;19924;-66
2021/10/11 05:08:37;;;;;;;;;;;;;;;19.07;59.45;100453.56;2080241;28;19920;-67
2021/10/11 05:09:37;;;;;;;;;;;;;;;19.07;59.49;100453.56;2084437;28;19955;-67
2021/10/11 05:10:37;;;;;;;;;;;;;;;19.07;59.45;100456.31;2083469;28;20429;-66
2021/10/11 05:11:38;;;;;;;;;;;;;;;19.08;59.46;100454.44;2085156;28;19927;-67